sensor_id;sensor_type;location;lat;lon;timestamp;pressure;altitude;pressure_sealevel;temperature;humidity
68301;BME280;55146;47.468;18.806;2023-04-07T00:00:48;99829.84;;;4.66;75.23
68301;BME280;55146;47.468;18.806;2023-04-07T00:03:14;99818.94;;;4.66;75.40
68301;BME280;55146;47.468;18.806;2023-04-07T00:05:40;99830.69;;;4.66;75.33
68301;BME280;55146;47.468;18.806;2023-04-07T00:08:05;99828.78;;;4.67;75.04
68301;BME280;55146;47.468;18.806;2023-04-07T00:10:30;99822.19;;;4.63;74.85
68301;BME280;55146;47.468;18.806;2023-04-07T00:12:56;99816.00;;;4.67;74.83
68301;BME280;55146;47.468;18.806;2023-04-07T00:15:21;99808.56;;;4.63;74.76
68301;BME280;55146;47.468;18.806;2023-04-07T00:17:46;99817.53;;;4.63;74.68
68301;BME280;55146;47.468;18.806;2023-04-07T00:20:12;99814.81;;;4.63;74.80
68301;BME280;55146;47.468;18.806;2023-04-07T00:22:37;99814.56;;;4.65;74.75
68301;BME280;55146;47.468;18.806;2023-04-07T00:25:03;99814.47;;;4.60;74.85
68301;BME280;55146;47.468;18.806;2023-04-07T00:27:28;99807.38;;;4.59;74.63
68301;BME280;55146;47.468;18.806;2023-04-07T00:29:54;99808.19;;;4.59;74.70
68301;BME280;55146;47.468;18.806;2023-04-07T00:32:20;99803.56;;;4.60;74.56
68301;BME280;55146;47.468;18.806;2023-04-07T00:34:46;99801.69;;;4.60;73.73
68301;BME280;55146;47.468;18.806;2023-04-07T00:37:11;99806.06;;;4.61;74.03
68301;BME280;55146;47.468;18.806;2023-04-07T00:39:36;99801.44;;;4.62;73.78
68301;BME280;55146;47.468;18.806;2023-04-07T00:42:03;99803.56;;;4.60;73.72
68301;BME280;55146;47.468;18.806;2023-04-07T00:44:29;99799.56;;;4.62;73.62
68301;BME280;55146;47.468;18.806;2023-04-07T00:46:55;99801.69;;;4.60;73.70
68301;BME280;55146;47.468;18.806;2023-04-07T00:49:20;99799.19;;;4.59;73.70
68301;BME280;55146;47.468;18.806;2023-04-07T00:51:46;99797.81;;;4.56;73.50
68301;BME280;55146;47.468;18.806;2023-04-07T00:54:11;99805.38;;;4.54;73.71
68301;BME280;55146;47.468;18.806;2023-04-07T00:56:37;99799.84;;;4.49;73.85
68301;BME280;55146;47.468;18.806;2023-04-07T00:59:06;99796.63;;;4.52;73.77
68301;BME280;55146;47.468;18.806;2023-04-07T01:01:37;99800.53;;;4.44;73.94
68301;BME280;55146;47.468;18.806;2023-04-07T01:04:12;99799.16;;;4.42;73.46
68301;BME280;55146;47.468;18.806;2023-04-07T01:06:47;99797.00;;;4.44;73.22
68301;BME280;55146;47.468;18.806;2023-04-07T01:09:28;99781.41;;;4.28;72.97
68301;BME280;55146;47.468;18.806;2023-04-07T01:12:33;99787.69;;;4.28;73.42
68301;BME280;55146;47.468;18.806;2023-04-07T01:15:09;99784.97;;;4.28;73.74
68301;BME280;55146;47.468;18.806;2023-04-07T01:17:38;99785.81;;;4.29;73.61
68301;BME280;55146;47.468;18.806;2023-04-07T01:20:09;99783.56;;;4.26;73.76
68301;BME280;55146;47.468;18.806;2023-04-07T01:22:40;99786.88;;;4.28;73.40
68301;BME280;55146;47.468;18.806;2023-04-07T01:28:11;99782.00;;;4.30;73.31
68301;BME280;55146;47.468;18.806;2023-04-07T01:30:39;99786.53;;;4.24;72.90
68301;BME280;55146;47.468;18.806;2023-04-07T01:33:07;99780.50;;;4.22;73.27
68301;BME280;55146;47.468;18.806;2023-04-07T01:35:36;99783.81;;;4.24;73.50
68301;BME280;55146;47.468;18.806;2023-04-07T01:38:02;99773.56;;;4.03;74.40
68301;BME280;55146;47.468;18.806;2023-04-07T01:40:28;99774.84;;;4.12;73.76
68301;BME280;55146;47.468;18.806;2023-04-07T01:42:55;99772.59;;;4.09;73.46
68301;BME280;55146;47.468;18.806;2023-04-07T01:45:22;99766.59;;;4.07;74.11
68301;BME280;55146;47.468;18.806;2023-04-07T01:47:49;99775.22;;;4.04;74.61
68301;BME280;55146;47.468;18.806;2023-04-07T01:50:15;99773.56;;;4.03;75.14
68301;BME280;55146;47.468;18.806;2023-04-07T01:52:41;99769.41;;;4.12;75.11
68301;BME280;55146;47.468;18.806;2023-04-07T01:55:07;99774.47;;;4.08;75.47
68301;BME280;55146;47.468;18.806;2023-04-07T01:57:33;99777.06;;;4.15;75.72
68301;BME280;55146;47.468;18.806;2023-04-07T01:59:59;99778.25;;;4.19;75.82
68301;BME280;55146;47.468;18.806;2023-04-07T02:02:24;99771.72;;;4.20;75.26
68301;BME280;55146;47.468;18.806;2023-04-07T02:05:03;99783.81;;;4.24;75.43
68301;BME280;55146;47.468;18.806;2023-04-07T02:07:45;99775.88;;;4.23;75.48
68301;BME280;55146;47.468;18.806;2023-04-07T02:10:15;99773.37;;;4.21;75.69
68301;BME280;55146;47.468;18.806;2023-04-07T02:12:42;99776.94;;;4.22;75.83
68301;BME280;55146;47.468;18.806;2023-04-07T02:15:11;99774.91;;;4.29;75.14
68301;BME280;55146;47.468;18.806;2023-04-07T02:17:39;99770.53;;;4.28;75.34
68301;BME280;55146;47.468;18.806;2023-04-07T02:20:07;99782.25;;;4.28;75.41
68301;BME280;55146;47.468;18.806;2023-04-07T02:22:34;99779.53;;;4.28;75.75
68301;BME280;55146;47.468;18.806;2023-04-07T02:25:00;99779.53;;;4.28;76.03
68301;BME280;55146;47.468;18.806;2023-04-07T02:27:25;99786.41;;;4.31;75.92
68301;BME280;55146;47.468;18.806;2023-04-07T02:29:50;99783.78;;;4.36;75.70
68301;BME280;55146;47.468;18.806;2023-04-07T02:32:15;99785.56;;;4.30;76.41
68301;BME280;55146;47.468;18.806;2023-04-07T02:34:42;99780.94;;;4.31;77.08
68301;BME280;55146;47.468;18.806;2023-04-07T02:37:07;99780.44;;;4.34;77.07
68301;BME280;55146;47.468;18.806;2023-04-07T02:39:32;99780.56;;;4.39;77.15
68301;BME280;55146;47.468;18.806;2023-04-07T02:41:58;99781.78;;;4.31;77.35
68301;BME280;55146;47.468;18.806;2023-04-07T02:44:23;99784.38;;;4.38;76.78
68301;BME280;55146;47.468;18.806;2023-04-07T02:46:48;99778.78;;;4.33;nan
68301;BME280;55146;47.468;18.806;2023-04-07T02:49:14;99775.28;;;4.21;77.86
68301;BME280;55146;47.468;18.806;2023-04-07T02:51:39;99777.53;;;4.24;78.30
68301;BME280;55146;47.468;18.806;2023-04-07T02:54:04;99774.31;;;4.27;78.52
68301;BME280;55146;47.468;18.806;2023-04-07T02:56:30;99781.66;;;4.26;78.88
68301;BME280;55146;47.468;18.806;2023-04-07T02:58:56;99773.84;;;4.30;79.40
68301;BME280;55146;47.468;18.806;2023-04-07T03:01:22;99771.25;;;4.23;78.86
68301;BME280;55146;47.468;18.806;2023-04-07T03:03:47;99769.53;;;4.05;79.53
68301;BME280;55146;47.468;18.806;2023-04-07T03:06:13;99764.91;;;4.06;79.96
68301;BME280;55146;47.468;18.806;2023-04-07T03:08:38;99771.19;;;4.06;80.21
68301;BME280;55146;47.468;18.806;2023-04-07T03:11:03;99766.81;;;4.05;80.47
68301;BME280;55146;47.468;18.806;2023-04-07T03:13:29;99766.84;;;3.94;80.89
68301;BME280;55146;47.468;18.806;2023-04-07T03:15:56;99764.81;;;3.89;81.29
68301;BME280;55146;47.468;18.806;2023-04-07T03:18:21;99774.16;;;3.93;81.22
68301;BME280;55146;47.468;18.806;2023-04-07T03:20:47;99773.56;;;3.91;80.99
68301;BME280;55146;47.468;18.806;2023-04-07T03:23:13;99766.56;;;3.95;81.13
68301;BME280;55146;47.468;18.806;2023-04-07T03:25:38;99771.91;;;3.90;81.56
68301;BME280;55146;47.468;18.806;2023-04-07T03:28:03;99773.94;;;3.95;80.84
68301;BME280;55146;47.468;18.806;2023-04-07T03:30:29;99774.06;;;3.88;81.26
68301;BME280;55146;47.468;18.806;2023-04-07T03:32:54;99767.66;;;3.94;81.34
68301;BME280;55146;47.468;18.806;2023-04-07T03:35:20;99773.78;;;4.01;81.13
68301;BME280;55146;47.468;18.806;2023-04-07T03:37:45;99766.84;;;3.94;81.11
68301;BME280;55146;47.468;18.806;2023-04-07T03:40:11;99766.13;;;3.98;80.96
68301;BME280;55146;47.468;18.806;2023-04-07T03:42:36;99773.22;;;3.99;80.61
68301;BME280;55146;47.468;18.806;2023-04-07T03:45:02;99767.28;;;4.02;80.33
68301;BME280;55146;47.468;18.806;2023-04-07T03:47:27;99769.78;;;3.92;80.40
68301;BME280;55146;47.468;18.806;2023-04-07T03:49:52;99766.56;;;3.95;80.73
68301;BME280;55146;47.468;18.806;2023-04-07T03:52:18;99756.87;;;3.99;80.68
68301;BME280;55146;47.468;18.806;2023-04-07T03:54:43;99757.37;;;3.85;81.37
68301;BME280;55146;47.468;18.806;2023-04-07T03:57:08;99757.25;;;3.91;80.61
68301;BME280;55146;47.468;18.806;2023-04-07T03:59:34;99760.81;;;3.92;79.84
68301;BME280;55146;47.468;18.806;2023-04-07T04:02:00;99769.47;;;3.89;80.78
68301;BME280;55146;47.468;18.806;2023-04-07T04:04:25;99764.94;;;3.94;80.31
68301;BME280;55146;47.468;18.806;2023-04-07T04:06:51;99775.56;;;3.96;80.57
68301;BME280;55146;47.468;18.806;2023-04-07T04:09:16;99767.41;;;3.96;80.02
68301;BME280;55146;47.468;18.806;2023-04-07T04:11:42;99765.16;;;4.04;80.11
68301;BME280;55146;47.468;18.806;2023-04-07T04:14:07;99765.06;;;3.99;80.01
68301;BME280;55146;47.468;18.806;2023-04-07T04:16:33;99772.03;;;3.95;80.50
68301;BME280;55146;47.468;18.806;2023-04-07T04:19:00;99783.59;;;4.02;79.66
68301;BME280;55146;47.468;18.806;2023-04-07T04:21:25;99776.62;;;4.06;80.17
68301;BME280;55146;47.468;18.806;2023-04-07T04:23:51;99776.12;;;4.10;79.36
68301;BME280;55146;47.468;18.806;2023-04-07T04:26:17;99776.84;;;4.17;79.32
68301;BME280;55146;47.468;18.806;2023-04-07T04:28:42;99776.62;;;4.06;79.87
68301;BME280;55146;47.468;18.806;2023-04-07T04:31:08;99777.81;;;4.11;80.07
68301;BME280;55146;47.468;18.806;2023-04-07T04:33:33;99779.78;;;4.15;79.98
68301;BME280;55146;47.468;18.806;2023-04-07T04:35:58;99780.03;;;4.14;80.46
68301;BME280;55146;47.468;18.806;2023-04-07T04:38:24;99789.03;;;4.14;80.57
68301;BME280;55146;47.468;18.806;2023-04-07T04:40:49;99789.25;;;4.24;80.11
68301;BME280;55146;47.468;18.806;2023-04-07T04:43:14;99794.69;;;4.24;80.22
68301;BME280;55146;47.468;18.806;2023-04-07T04:45:40;99789.13;;;4.31;79.75
68301;BME280;55146;47.468;18.806;2023-04-07T04:48:05;99795.00;;;4.39;79.28
68301;BME280;55146;47.468;18.806;2023-04-07T04:50:31;99788.97;;;4.37;79.50
68301;BME280;55146;47.468;18.806;2023-04-07T04:52:56;99798.91;;;4.43;79.34
68301;BME280;55146;47.468;18.806;2023-04-07T04:55:21;99797.72;;;4.39;78.61
68301;BME280;55146;47.468;18.806;2023-04-07T04:57:47;99798.34;;;4.30;79.19
68301;BME280;55146;47.468;18.806;2023-04-07T05:00:12;99809.00;;;4.31;79.56
68301;BME280;55146;47.468;18.806;2023-04-07T05:02:38;99801.06;;;4.30;79.37
68301;BME280;55146;47.468;18.806;2023-04-07T05:05:04;99808.88;;;4.26;79.30
68301;BME280;55146;47.468;18.806;2023-04-07T05:07:29;99811.84;;;4.36;79.09
68301;BME280;55146;47.468;18.806;2023-04-07T05:09:55;99817.84;;;4.38;79.21
68301;BME280;55146;47.468;18.806;2023-04-07T05:12:20;99810.63;;;4.44;79.09
68301;BME280;55146;47.468;18.806;2023-04-07T05:14:46;99815.94;;;4.39;78.96
68301;BME280;55146;47.468;18.806;2023-04-07T05:17:11;99821.41;;;4.39;79.57
68301;BME280;55146;47.468;18.806;2023-04-07T05:19:37;99820.22;;;4.35;79.48
68301;BME280;55146;47.468;18.806;2023-04-07T05:22:02;99825.31;;;4.43;79.61
68301;BME280;55146;47.468;18.806;2023-04-07T05:24:28;99820.19;;;4.46;79.00
68301;BME280;55146;47.468;18.806;2023-04-07T05:26:54;99826.97;;;4.44;79.37
68301;BME280;55146;47.468;18.806;2023-04-07T05:29:20;99817.09;;;4.55;78.58
68301;BME280;55146;47.468;18.806;2023-04-07T05:31:45;99817.56;;;4.52;78.76
68301;BME280;55146;47.468;18.806;2023-04-07T05:34:11;99818.06;;;4.48;78.53
68301;BME280;55146;47.468;18.806;2023-04-07T05:36:36;99819.47;;;4.51;78.73
68301;BME280;55146;47.468;18.806;2023-04-07T05:39:02;99815.12;;;4.38;79.03
68301;BME280;55146;47.468;18.806;2023-04-07T05:41:27;99816.06;;;4.44;78.93
68301;BME280;55146;47.468;18.806;2023-04-07T05:43:52;99822.00;;;4.41;78.87
68301;BME280;55146;47.468;18.806;2023-04-07T05:46:18;99837.03;;;4.43;78.79
68301;BME280;55146;47.468;18.806;2023-04-07T05:48:43;99829.22;;;4.35;79.09
68301;BME280;55146;47.468;18.806;2023-04-07T05:51:08;99838.09;;;4.42;79.04
68301;BME280;55146;47.468;18.806;2023-04-07T05:53:34;99836.62;;;4.52;79.42
68301;BME280;55146;47.468;18.806;2023-04-07T05:55:59;99841.84;;;4.53;79.12
68301;BME280;55146;47.468;18.806;2023-04-07T05:58:24;99832.38;;;4.56;78.79
68301;BME280;55146;47.468;18.806;2023-04-07T06:00:50;99838.88;;;4.55;79.10
68301;BME280;55146;47.468;18.806;2023-04-07T06:03:15;99831.06;;;4.58;78.95
68301;BME280;55146;47.468;18.806;2023-04-07T06:05:41;99831.31;;;4.57;77.97
68301;BME280;55146;47.468;18.806;2023-04-07T06:08:08;99840.41;;;4.62;78.42
68301;BME280;55146;47.468;18.806;2023-04-07T06:10:34;99841.66;;;4.71;79.06
68301;BME280;55146;47.468;18.806;2023-04-07T06:12:59;99836.66;;;4.80;78.38
68301;BME280;55146;47.468;18.806;2023-04-07T06:15:25;99832.16;;;4.85;78.29
68301;BME280;55146;47.468;18.806;2023-04-07T06:17:50;99828.59;;;4.85;77.43
68301;BME280;55146;47.468;18.806;2023-04-07T06:20:16;99832.47;;;4.89;78.05
68301;BME280;55146;47.468;18.806;2023-04-07T06:22:41;99830.56;;;4.89;77.59
68301;BME280;55146;47.468;18.806;2023-04-07T06:25:07;99826.09;;;4.83;78.50
68301;BME280;55146;47.468;18.806;2023-04-07T06:27:32;99830.56;;;4.89;78.20
68301;BME280;55146;47.468;18.806;2023-04-07T06:29:57;99837.78;;;4.96;78.05
68301;BME280;55146;47.468;18.806;2023-04-07T06:32:23;99834.81;;;4.97;77.45
68301;BME280;55146;47.468;18.806;2023-04-07T06:34:49;99826.13;;;5.00;77.23
68301;BME280;55146;47.468;18.806;2023-04-07T06:37:14;99834.06;;;5.02;77.60
68301;BME280;55146;47.468;18.806;2023-04-07T06:39:41;99831.28;;;5.13;77.18
68301;BME280;55146;47.468;18.806;2023-04-07T06:42:06;99840.19;;;5.09;77.02
68301;BME280;55146;47.468;18.806;2023-04-07T06:44:31;99841.63;;;5.11;76.99
68301;BME280;55146;47.468;18.806;2023-04-07T06:46:57;99843.09;;;5.19;77.18
68301;BME280;55146;47.468;18.806;2023-04-07T06:49:22;99842.22;;;5.30;77.01
68301;BME280;55146;47.468;18.806;2023-04-07T06:51:47;99846.03;;;5.29;75.71
68301;BME280;55146;47.468;18.806;2023-04-07T06:54:13;99846.09;;;5.34;75.15
68301;BME280;55146;47.468;18.806;2023-04-07T06:56:42;99847.41;;;5.32;75.16
68301;BME280;55146;47.468;18.806;2023-04-07T06:59:08;99850.72;;;5.34;75.06
68301;BME280;55146;47.468;18.806;2023-04-07T07:01:33;99857.59;;;5.36;76.12
68301;BME280;55146;47.468;18.806;2023-04-07T07:03:59;99859.91;;;5.44;75.44
68301;BME280;55146;47.468;18.806;2023-04-07T07:06:27;99859.75;;;5.51;75.43
68301;BME280;55146;47.468;18.806;2023-04-07T07:08:53;99854.72;;;5.59;74.29
68301;BME280;55146;47.468;18.806;2023-04-07T07:11:18;99858.75;;;5.57;74.39
68301;BME280;55146;47.468;18.806;2023-04-07T07:13:44;99866.63;;;5.70;75.25
68301;BME280;55146;47.468;18.806;2023-04-07T07:16:10;99866.63;;;5.70;73.99
68301;BME280;55146;47.468;18.806;2023-04-07T07:18:36;99870.34;;;5.81;74.03
68301;BME280;55146;47.468;18.806;2023-04-07T07:21:02;99869.69;;;5.74;74.41
68301;BME280;55146;47.468;18.806;2023-04-07T07:23:27;99877.63;;;5.75;75.15
68301;BME280;55146;47.468;18.806;2023-04-07T07:25:52;99873.03;;;5.92;73.70
68301;BME280;55146;47.468;18.806;2023-04-07T07:28:18;99885.72;;;5.87;73.84
68301;BME280;55146;47.468;18.806;2023-04-07T07:30:45;99887.22;;;5.78;73.18
68301;BME280;55146;47.468;18.806;2023-04-07T07:33:10;99887.75;;;5.91;72.88
68301;BME280;55146;47.468;18.806;2023-04-07T07:35:36;99891.09;;;5.82;73.58
68301;BME280;55146;47.468;18.806;2023-04-07T07:38:02;99895.06;;;5.74;73.70
68301;BME280;55146;47.468;18.806;2023-04-07T07:40:27;99898.12;;;5.78;74.09
68301;BME280;55146;47.468;18.806;2023-04-07T07:42:53;99892.63;;;5.89;74.07
68301;BME280;55146;47.468;18.806;2023-04-07T07:45:18;99892.47;;;5.96;73.56
68301;BME280;55146;47.468;18.806;2023-04-07T07:47:43;99892.22;;;5.97;72.98
68301;BME280;55146;47.468;18.806;2023-04-07T07:50:09;99893.78;;;6.10;72.81
68301;BME280;55146;47.468;18.806;2023-04-07T07:52:35;99892.84;;;6.21;72.45
68301;BME280;55146;47.468;18.806;2023-04-07T07:55:01;99896.97;;;6.24;72.72
68301;BME280;55146;47.468;18.806;2023-04-07T07:57:26;99900.63;;;6.29;72.52
68301;BME280;55146;47.468;18.806;2023-04-07T07:59:51;99911.34;;;6.36;72.68
68301;BME280;55146;47.468;18.806;2023-04-07T08:02:17;99913.28;;;6.35;72.41
68301;BME280;55146;47.468;18.806;2023-04-07T08:04:43;99913.59;;;6.39;70.43
68301;BME280;55146;47.468;18.806;2023-04-07T08:07:09;99917.56;;;6.31;71.75
68301;BME280;55146;47.468;18.806;2023-04-07T08:09:36;99911.75;;;6.44;71.32
68301;BME280;55146;47.468;18.806;2023-04-07T08:12:01;99924.22;;;6.57;72.44
68301;BME280;55146;47.468;18.806;2023-04-07T08:14:28;99924.09;;;6.69;72.35
68301;BME280;55146;47.468;18.806;2023-04-07T08:16:53;99929.59;;;6.90;71.02
68301;BME280;55146;47.468;18.806;2023-04-07T08:19:19;99930.97;;;6.93;70.62
68301;BME280;55146;47.468;18.806;2023-04-07T08:21:44;99921.75;;;6.99;69.75
68301;BME280;55146;47.468;18.806;2023-04-07T08:24:10;99927.22;;;6.99;69.78
68301;BME280;55146;47.468;18.806;2023-04-07T08:26:36;99927.09;;;6.89;70.51
68301;BME280;55146;47.468;18.806;2023-04-07T08:29:01;99927.53;;;6.81;70.05
68301;BME280;55146;47.468;18.806;2023-04-07T08:31:27;99924.75;;;6.76;70.83
68301;BME280;55146;47.468;18.806;2023-04-07T08:33:52;99932.50;;;6.84;71.49
68301;BME280;55146;47.468;18.806;2023-04-07T08:36:22;99932.56;;;6.89;70.97
68301;BME280;55146;47.468;18.806;2023-04-07T08:38:47;99937.97;;;7.06;70.50
68301;BME280;55146;47.468;18.806;2023-04-07T08:41:17;99940.50;;;7.12;70.14
68301;BME280;55146;47.468;18.806;2023-04-07T08:43:45;99941.09;;;7.14;71.29
68301;BME280;55146;47.468;18.806;2023-04-07T08:46:13;99937.19;;;7.10;69.96
68301;BME280;55146;47.468;18.806;2023-04-07T08:48:43;99944.47;;;7.21;69.62
68301;BME280;55146;47.468;18.806;2023-04-07T08:51:09;99939.09;;;7.10;70.59
68301;BME280;55146;47.468;18.806;2023-04-07T08:53:46;99942.09;;;7.08;70.52
68301;BME280;55146;47.468;18.806;2023-04-07T08:56:15;99944.72;;;7.20;70.68
68301;BME280;55146;47.468;18.806;2023-04-07T08:58:41;99948.03;;;7.22;70.99
68301;BME280;55146;47.468;18.806;2023-04-07T09:01:08;99949.34;;;7.19;71.00
68301;BME280;55146;47.468;18.806;2023-04-07T09:03:33;99949.44;;;7.29;70.43
68301;BME280;55146;47.468;18.806;2023-04-07T09:05:59;99936.31;;;7.26;70.60
68301;BME280;55146;47.468;18.806;2023-04-07T09:08:25;99938.00;;;7.32;70.53
68301;BME280;55146;47.468;18.806;2023-04-07T09:10:51;99940.13;;;7.25;70.56
68301;BME280;55146;47.468;18.806;2023-04-07T09:13:16;99932.69;;;7.21;70.98
68301;BME280;55146;47.468;18.806;2023-04-07T09:15:42;99942.66;;;7.32;71.48
68301;BME280;55146;47.468;18.806;2023-04-07T09:18:07;99941.28;;;7.35;71.95
68301;BME280;55146;47.468;18.806;2023-04-07T09:20:55;99939.97;;;7.37;70.92
68301;BME280;55146;47.468;18.806;2023-04-07T09:23:35;99937.81;;;7.39;70.31
68301;BME280;55146;47.468;18.806;2023-04-07T09:26:20;99945.50;;;7.42;70.90
68301;BME280;55146;47.468;18.806;2023-04-07T09:28:56;99939.47;;;7.40;71.81
68301;BME280;55146;47.468;18.806;2023-04-07T09:31:23;99939.75;;;7.44;71.02
68301;BME280;55146;47.468;18.806;2023-04-07T09:34:23;99937.91;;;7.49;70.15
68301;BME280;55146;47.468;18.806;2023-04-07T09:36:48;99942.09;;;7.57;70.72
68301;BME280;55146;47.468;18.806;2023-04-07T09:39:14;99936.72;;;7.67;69.89
68301;BME280;55146;47.468;18.806;2023-04-07T09:41:39;99938.97;;;7.75;68.54
68301;BME280;55146;47.468;18.806;2023-04-07T09:44:05;99939.19;;;7.68;69.00
68301;BME280;55146;47.468;18.806;2023-04-07T09:46:31;99939.78;;;7.70;69.78
68301;BME280;55146;47.468;18.806;2023-04-07T09:49:02;99949.91;;;7.70;69.27
68301;BME280;55146;47.468;18.806;2023-04-07T09:51:29;99944.41;;;7.70;68.45
68301;BME280;55146;47.468;18.806;2023-04-07T09:53:55;99956.59;;;7.57;70.90
68301;BME280;55146;47.468;18.806;2023-04-07T09:56:21;99949.53;;;7.61;70.07
68301;BME280;55146;47.468;18.806;2023-04-07T09:58:47;99949.84;;;7.65;70.08
68301;BME280;55146;47.468;18.806;2023-04-07T10:01:15;99947.19;;;7.75;70.15
68301;BME280;55146;47.468;18.806;2023-04-07T10:03:47;99944.12;;;7.71;69.92
68301;BME280;55146;47.468;18.806;2023-04-07T10:06:13;99940.91;;;7.75;68.83
68301;BME280;55146;47.468;18.806;2023-04-07T10:08:41;99945.06;;;7.82;69.09
68301;BME280;55146;47.468;18.806;2023-04-07T10:11:08;99946.03;;;7.98;68.96
68301;BME280;55146;47.468;18.806;2023-04-07T10:13:36;99946.88;;;8.03;68.61
68301;BME280;55146;47.468;18.806;2023-04-07T10:16:03;99945.50;;;8.01;68.30
68301;BME280;55146;47.468;18.806;2023-04-07T10:18:31;99947.47;;;8.05;67.29
68301;BME280;55146;47.468;18.806;2023-04-07T10:21:04;99945.31;;;8.07;68.71
68301;BME280;55146;47.468;18.806;2023-04-07T10:27:04;99942.97;;;8.26;66.46
68301;BME280;55146;47.468;18.806;2023-04-07T10:29:34;99942.44;;;8.29;67.41
68301;BME280;55146;47.468;18.806;2023-04-07T10:32:02;99941.97;;;8.32;67.87
68301;BME280;55146;47.468;18.806;2023-04-07T10:37:15;99937.78;;;8.30;66.35
68301;BME280;55146;47.468;18.806;2023-04-07T10:39:48;99942.41;;;8.24;68.01
68301;BME280;55146;47.468;18.806;2023-04-07T10:42:43;99951.88;;;8.38;68.63
68301;BME280;55146;47.468;18.806;2023-04-07T10:45:08;99951.22;;;8.63;68.04
68301;BME280;55146;47.468;18.806;2023-04-07T10:50:23;99949.84;;;8.71;65.83
68301;BME280;55146;47.468;18.806;2023-04-07T10:53:12;99949.00;;;8.65;65.28
68301;BME280;55146;47.468;18.806;2023-04-07T10:55:39;99950.00;;;8.49;65.82
68301;BME280;55146;47.468;18.806;2023-04-07T11:03:21;99945.34;;;8.49;65.73
68301;BME280;55146;47.468;18.806;2023-04-07T11:05:46;99942.84;;;8.43;66.12
68301;BME280;55146;47.468;18.806;2023-04-07T11:08:12;99948.31;;;8.43;68.11
68301;BME280;55146;47.468;18.806;2023-04-07T11:10:37;99943.97;;;8.52;66.60
68301;BME280;55146;47.468;18.806;2023-04-07T11:13:06;99948.19;;;8.65;67.94
68301;BME280;55146;47.468;18.806;2023-04-07T11:15:34;99943.50;;;8.65;67.20
68301;BME280;55146;47.468;18.806;2023-04-07T11:18:14;99948.50;;;8.73;67.63
68301;BME280;55146;47.468;18.806;2023-04-07T11:23:08;99952.78;;;9.06;65.82
68301;BME280;55146;47.468;18.806;2023-04-07T11:25:34;99947.87;;;9.13;65.62
68301;BME280;55146;47.468;18.806;2023-04-07T11:28:00;99951.44;;;9.14;64.47
68301;BME280;55146;47.468;18.806;2023-04-07T11:30:27;99953.56;;;8.97;64.62
68301;BME280;55146;47.468;18.806;2023-04-07T11:32:53;99954.41;;;9.02;64.82
68301;BME280;55146;47.468;18.806;2023-04-07T11:35:19;99950.56;;;8.98;64.10
68301;BME280;55146;47.468;18.806;2023-04-07T11:37:45;99948.06;;;8.91;64.27
68301;BME280;55146;47.468;18.806;2023-04-07T11:40:11;99948.88;;;8.92;64.29
68301;BME280;55146;47.468;18.806;2023-04-07T11:42:39;99950.78;;;8.86;65.63
68301;BME280;55146;47.468;18.806;2023-04-07T11:45:05;99955.41;;;8.81;65.01
68301;BME280;55146;47.468;18.806;2023-04-07T11:47:39;99952.09;;;8.79;64.42
68301;BME280;55146;47.468;18.806;2023-04-07T11:50:06;99946.25;;;8.65;64.98
68301;BME280;55146;47.468;18.806;2023-04-07T11:52:45;99949.63;;;8.77;66.06
68301;BME280;55146;47.468;18.806;2023-04-07T11:55:18;99949.94;;;8.86;65.19
68301;BME280;55146;47.468;18.806;2023-04-07T11:57:45;99946.41;;;8.96;65.62
68301;BME280;55146;47.468;18.806;2023-04-07T12:00:11;99947.25;;;9.01;64.56
68301;BME280;55146;47.468;18.806;2023-04-07T12:02:38;99950.81;;;8.97;64.89
68301;BME280;55146;47.468;18.806;2023-04-07T12:05:05;99949.75;;;9.03;65.59
68301;BME280;55146;47.468;18.806;2023-04-07T12:07:31;99949.25;;;9.11;65.42
68301;BME280;55146;47.468;18.806;2023-04-07T12:09:57;99945.69;;;9.15;65.47
68301;BME280;55146;47.468;18.806;2023-04-07T12:12:26;99951.72;;;9.07;64.14
68301;BME280;55146;47.468;18.806;2023-04-07T12:14:52;99956.63;;;9.00;64.15
68301;BME280;55146;47.468;18.806;2023-04-07T12:17:22;99954.94;;;8.99;65.60
68301;BME280;55146;47.468;18.806;2023-04-07T12:19:48;99952.75;;;9.01;64.72
68301;BME280;55146;47.468;18.806;2023-04-07T12:22:13;99948.13;;;9.07;64.26
68301;BME280;55146;47.468;18.806;2023-04-07T12:24:38;99947.84;;;9.08;63.15
68301;BME280;55146;47.468;18.806;2023-04-07T12:27:04;99942.88;;;9.00;63.69
68301;BME280;55146;47.468;18.806;2023-04-07T12:29:30;99945.91;;;9.04;63.31
68301;BME280;55146;47.468;18.806;2023-04-07T12:31:55;99949.72;;;8.92;63.12
68301;BME280;55146;47.468;18.806;2023-04-07T12:34:21;99946.13;;;8.92;62.73
68301;BME280;55146;47.468;18.806;2023-04-07T12:36:47;99946.41;;;8.96;62.79
68301;BME280;55146;47.468;18.806;2023-04-07T12:39:12;99951.66;;;9.02;63.25
68301;BME280;55146;47.468;18.806;2023-04-07T12:41:38;99948.66;;;9.09;62.95
68301;BME280;55146;47.468;18.806;2023-04-07T12:44:04;99947.59;;;9.15;63.09
68301;BME280;55146;47.468;18.806;2023-04-07T12:46:30;99937.69;;;9.09;61.91
68301;BME280;55146;47.468;18.806;2023-04-07T12:48:55;99945.41;;;9.12;61.79
68301;BME280;55146;47.468;18.806;2023-04-07T12:51:21;99943.19;;;9.14;64.38
68301;BME280;55146;47.468;18.806;2023-04-07T12:53:46;99947.91;;;9.23;63.35
68301;BME280;55146;47.468;18.806;2023-04-07T12:56:12;99946.25;;;9.22;62.18
68301;BME280;55146;47.468;18.806;2023-04-07T12:58:39;99947.59;;;9.20;63.57
68301;BME280;55146;47.468;18.806;2023-04-07T13:01:05;99947.06;;;9.13;63.49
68301;BME280;55146;47.468;18.806;2023-04-07T13:03:30;99943.50;;;9.17;62.95
68301;BME280;55146;47.468;18.806;2023-04-07T13:05:56;99947.91;;;9.23;63.39
68301;BME280;55146;47.468;18.806;2023-04-07T13:08:25;99954.50;;;9.27;63.41
68301;BME280;55146;47.468;18.806;2023-04-07T13:10:51;99945.75;;;9.30;63.45
68301;BME280;55146;47.468;18.806;2023-04-07T13:13:16;99941.91;;;9.31;62.92
68301;BME280;55146;47.468;18.806;2023-04-07T13:15:42;99948.19;;;9.32;63.85
68301;BME280;55146;47.468;18.806;2023-04-07T13:18:07;99942.13;;;9.20;63.43